Terminal Aerodrome Forecast
Issued by NWS Charleston, WV

Home | Current Version | Previous Version | Text Only | Print | Product List | Glossary On
Versions: 1 2 3 4 5 6 7 8 9 10 11 12 13 14 15 16 17 18 19 20 21 22
164
FTUS41 KRLX 240530
TAFHTS
TAF
KHTS 240530Z 2406/2506 00000KT P6SM SKC
     FM241700 20004KT P6SM SKC
     FM250100 18003KT P6SM FEW250=

USA.gov is the U.S. government's official web portal to all federal, state and local government web resources and services.